Terminal Aerodrome Forecast
Issued by NWS

Current Version | Previous Version | Text Only | Print | Product List | Glossary Off
Versions: 1 2 3 4 5 6 7 8 9 10 11 12 13 14 15 16

000
FTUS41 KILN 131139
TAFLCK
TAF
KLCK 131139Z 1312/1412 20007KT P6SM SCT040 BKN080
     FM131800 19011KT P6SM BKN120
     FM132300 20011KT P6SM -SHSN OVC050
     FM140200 23014G22KT P6SM VCSH OVC040
     FM140400 27017G27KT P6SM OVC022
     FM140800 31016G24KT P6SM OVC018=

USA.gov is the U.S. government's official web portal to all federal, state and local government web resources and services.